Terminal Aerodrome Forecast
Issued by NWS

Home | Current Version | Previous Version | Text Only | Print | Product List | Glossary On
Versions: 1 2 3 4 5 6 7 8 9 10 11 12 13 14 15 16
000
FTUS42 KILM 230520
TAFCRE
TAF
KCRE 230520Z 2306/2406 09008KT P6SM VCSH BKN035
     FM231400 13012G20KT P6SM VCSH BKN035
     FM231800 15014G24KT P6SM VCSH BKN030
      TEMPO 2321/2324 5SM -SHRA OVC025
     FM240000 19014G24KT 5SM -SHRA OVC025=

USA.gov is the U.S. government's official web portal to all federal, state and local government web resources and services.